Airfield :
LOGIN :

Register | Disclaimer

   EN    FR    IT 

 










Legend :    VFR   Marginal VFR   IFR   Intensive IFR   Very Intensive IFR
Visi :
Ceiling :
>= 8 km
>= 3000ft
5 to 8 km
1000 to 3000 ft
1500m to 5 km
500 to 1000 ft
800 to 1500m
200 to 500 ft
< 800m
< 200 ft
Symbols :   Thunderstorms  Fog  Heavy snow  Heavy precipitations  Wind > 20 kt
SIGMETs :     Misc.  Thunderstorms  Icing  Turbulence  Mountain Waves  Volcanic Ashes






- Airport Elevation : 659 ft
- IATA code : LGG


EBLG - Liège

CURRENT METAR :
  • 272350Z 25004KT 9999 FEW049 10/05 Q1023 NOSIG

EXPIRED METARs :
  • 272320Z 24003KT 9999 FEW046 10/05 Q1023 NOSIG
  • 272250Z 27002KT 9999 FEW046 09/04 Q1024 NOSIG
  • 272220Z 27002KT 9999 FEW045 09/04 Q1024 NOSIG
  • 272150Z 30002KT 9999 FEW045 10/05 Q1024 NOSIG
  • 272120Z 27003KT CAVOK 10/04 Q1024 NOSIG

TAF TAF EBLG
Valid from the 28 at 00:00 until the 29 at 06:00 UTC


272310Z 2800/2906 25005KT 9999 FEW020
BECMG 2811/2813 33013KT
BECMG 2823/2901 31003KT



MET'MAP, your aeronautical weather chart ! - Copyright ORBIFLY December 2007 - Disclaimer

ORBIFLY MET'MAP TEAM :

Programming & Development : Alexandra Zaïnal
Original concept : Baudouin d'Aumeries
Technical & hardware support : Manuel Goepfert
Assistance : Marc-Olivier Méhu

Contact : metmap@orbifly.com




SOURCES & CREDITS :

   NOAA